F/V J. Louis Vincent — FQBL — position and weather

sailwx.info

Track history (hours):
 
Tides and Currents Weather Stations Pressure Air Temp Water Temp Dewpoint Dewpoint Depression Visibility Wind Speed Wind Dir Waves Ship Positions

F/V J. Louis Vincent

Last reported at 2016-Feb-09 11:33 UTC. Time now 2016-Feb-09 18:02 UTC.
Position N 43°03' E 004°27'.

Length 29 m; draft 3.5 m.

Type: Fishing. MMSI: 227146600.

Date/timePositionNaut miles runAvg speedWind from/ knotsBaromVisibWave heightAir tempDewpointWater temp
2016-Feb-09 11:33N 43°03' E 004°27'4 4.5
2016-Feb-09 10:33N 43°01' E 004°33'5 4.5
2016-Feb-09 09:33N 42°59' E 004°39'5 5.2
2016-Feb-09 08:33N 42°60' E 004°46'2 2.2
2016-Feb-09 07:33N 42°59' E 004°43'4 4.5
2016-Feb-09 06:33N 43°00' E 004°37'5 4.8
2016-Feb-09 05:33N 43°02' E 004°31'1611.0
2016-Feb-09 04:06N 43°10' E 004°12'811.4
2016-Feb-09 03:24N 43°14' E 004°03'1011.5
2016-Feb-09 02:33N 43°20' E 003°52'9 1.0
2016-Feb-08 17:33N 43°24' E 003°42'8 5.8
2016-Feb-08 16:12N 43°17' E 003°46'811.7
2016-Feb-08 15:31N 43°09' E 003°51'4 3.9
2016-Feb-08 14:33N 43°06' E 003°53'5 4.6
2016-Feb-08 13:33N 43°01' E 003°55'5 4.6
2016-Feb-08 12:32N 42°57' E 003°57'3 3.4
2016-Feb-08 11:33N 42°56' E 004°01'  
2016-Feb-05 17:30N 43°24' E 003°42'38 1.2
2016-Feb-04 09:26N 43°04' E 004°27'3 3.2
2016-Feb-04 08:33N 43°06' E 004°31'6 6.2
2016-Feb-04 07:33N 43°09' E 004°24'5 4.7
2016-Feb-04 06:33N 43°12' E 004°19'5 4.6
2016-Feb-04 05:33N 43°15' E 004°14'5 4.6
2016-Feb-04 04:32N 43°16' E 004°08'18 0.4
2016-Feb-02 08:33N 43°03' E 004°25'0 0.3
2016-Feb-02 07:32N 43°03' E 004°25'1 0.1
2016-Feb-01 09:26N 43°03' E 004°27'4 4.3
2016-Feb-01 08:33N 43°03' E 004°32'5 5.1
2016-Feb-01 07:33N 43°03' E 004°25'  
Track history (hours):
 
Tides and Currents Weather Stations Pressure Air Temp Water Temp Dewpoint Dewpoint Depression Visibility Wind Speed Wind Dir Waves Ship Positions

F/V J. Louis Vincent

Last reported at 2016-Feb-09 11:33 UTC. Time now 2016-Feb-09 18:02 UTC.
Position N 43°03' E 004°27'.

Length 29 m; draft 3.5 m.

Type: Fishing. MMSI: 227146600.

Date/timePositionNaut miles runAvg speedWind from/ knotsBaromVisibWave heightAir tempDewpointWater temp
2016-Feb-09 11:33N 43°03' E 004°27'4 4.5
2016-Feb-09 10:33N 43°01' E 004°33'5 4.5
2016-Feb-09 09:33N 42°59' E 004°39'5 5.2
2016-Feb-09 08:33N 42°60' E 004°46'2 2.2
2016-Feb-09 07:33N 42°59' E 004°43'4 4.5
2016-Feb-09 06:33N 43°00' E 004°37'5 4.8
2016-Feb-09 05:33N 43°02' E 004°31'1611.0
2016-Feb-09 04:06N 43°10' E 004°12'811.4
2016-Feb-09 03:24N 43°14' E 004°03'1011.5
2016-Feb-09 02:33N 43°20' E 003°52'9 1.0
2016-Feb-08 17:33N 43°24' E 003°42'8 5.8
2016-Feb-08 16:12N 43°17' E 003°46'811.7
2016-Feb-08 15:31N 43°09' E 003°51'4 3.9
2016-Feb-08 14:33N 43°06' E 003°53'5 4.6
2016-Feb-08 13:33N 43°01' E 003°55'5 4.6
2016-Feb-08 12:32N 42°57' E 003°57'3 3.4
2016-Feb-08 11:33N 42°56' E 004°01'  
2016-Feb-05 17:30N 43°24' E 003°42'38 1.2
2016-Feb-04 09:26N 43°04' E 004°27'3 3.2
2016-Feb-04 08:33N 43°06' E 004°31'6 6.2
2016-Feb-04 07:33N 43°09' E 004°24'5 4.7
2016-Feb-04 06:33N 43°12' E 004°19'5 4.6
2016-Feb-04 05:33N 43°15' E 004°14'5 4.6
2016-Feb-04 04:32N 43°16' E 004°08'18 0.4
2016-Feb-02 08:33N 43°03' E 004°25'0 0.3
2016-Feb-02 07:32N 43°03' E 004°25'1 0.1
2016-Feb-01 09:26N 43°03' E 004°27'4 4.3
2016-Feb-01 08:33N 43°03' E 004°32'5 5.1
2016-Feb-01 07:33N 43°03' E 004°25'  

Dump ship's entire track history